Time;durP1;ratioP1;P1;durP2;ratioP2;P2;SDS_P1;SDS_P2;PMS_P1;PMS_P2;Temp;Humidity;BMP_temperature;BMP_pressure;BME280_temperature;BME280_humidity;BME280_pressure;Samples;Min_cycle;Max_cycle;Signal;HPM_P1;HPM_P2
2023/08/06 00:01:57;;;;;;;5.10;4.40;;;;;;;15.06;100.00;100311.81;5025153;28;20029;-70
2023/08/06 00:04:22;;;;;;;5.68;4.40;;;;;;;15.02;100.00;100307.91;5024671;28;20029;-70
2023/08/06 00:06:47;;;;;;;8.68;4.78;;;;;;;15.07;100.00;100318.81;5028552;28;20048;-70
2023/08/06 00:09:13;;;;;;;6.32;4.80;;;;;;;15.08;100.00;100321.28;5018580;28;20410;-71
2023/08/06 00:11:38;;;;;;;5.53;4.30;;;;;;;15.06;100.00;100314.50;5020914;28;20083;-71
2023/08/06 00:14:03;;;;;;;6.50;4.65;;;;;;;15.06;100.00;100315.31;5024985;28;20691;-70
2023/08/06 00:16:29;;;;;;;8.77;4.93;;;;;;;15.06;100.00;100326.03;5026219;28;20048;-71
2023/08/06 00:18:54;;;;;;;9.73;4.07;;;;;;;15.04;100.00;100317.38;5021490;28;20040;-71
2023/08/06 00:21:19;;;;;;;6.18;4.40;;;;;;;15.04;100.00;100313.91;5028089;28;20025;-71
2023/08/06 00:23:45;;;;;;;7.07;4.60;;;;;;;15.00;100.00;100305.44;5021474;28;20487;-70
2023/08/06 00:26:10;;;;;;;5.22;4.03;;;;;;;15.00;100.00;100301.97;5022299;28;20017;-71
2023/08/06 00:28:35;;;;;;;5.90;4.60;;;;;;;15.04;100.00;100301.34;5026463;28;20079;-71
2023/08/06 00:31:00;;;;;;;7.47;4.75;;;;;;;14.97;100.00;100289.00;5018787;28;20102;-71
2023/08/06 00:33:26;;;;;;;8.32;4.00;;;;;;;15.00;100.00;100300.09;5018748;28;20605;-71
2023/08/06 00:35:51;;;;;;;6.88;4.32;;;;;;;15.04;100.00;100298.66;5028053;28;20017;-71
2023/08/06 00:38:17;;;;;;;6.90;4.45;;;;;;;15.03;100.00;100302.34;5023408;28;20035;-71
2023/08/06 00:40:42;;;;;;;5.45;4.05;;;;;;;15.06;100.00;100306.47;5017510;28;20061;-71
2023/08/06 00:43:07;;;;;;;6.40;4.13;;;;;;;15.04;100.00;100303.19;5028135;28;20441;-71
2023/08/06 00:45:35;;;;;;;5.03;4.18;;;;;;;15.02;100.00;100298.03;5023408;28;20034;-71
2023/08/06 00:48:01;;;;;;;4.95;4.22;;;;;;;15.03;100.00;100299.69;5027212;28;20483;-71
2023/08/06 00:50:27;;;;;;;4.50;4.10;;;;;;;15.04;100.00;100300.53;5021994;28;20056;-71
2023/08/06 00:52:53;;;;;;;5.63;4.15;;;;;;;15.06;100.00;100293.94;5025686;28;20495;-71
2023/08/06 00:55:18;;;;;;;6.80;4.30;;;;;;;15.07;100.00;100297.41;5023886;28;20561;-71
2023/08/06 00:57:44;;;;;;;6.00;4.72;;;;;;;15.05;100.00;100294.97;5026751;28;20014;-71
2023/08/06 01:00:09;;;;;;;5.90;4.72;;;;;;;15.04;100.00;100292.50;5026801;28;20029;-71
2023/08/06 01:02:35;;;;;;;5.55;4.38;;;;;;;15.06;100.00;100299.28;5021714;28;20030;-71
2023/08/06 01:05:00;;;;;;;5.68;4.20;;;;;;;15.07;100.00;100292.06;5027209;28;20029;-71
2023/08/06 01:07:51;;;;;;;8.13;4.63;;;;;;;15.09;100.00;100298.03;5019548;28;20509;-70
2023/08/06 01:10:43;;;;;;;6.25;4.55;;;;;;;15.09;100.00;100295.34;5022813;28;20034;-70
2023/08/06 01:13:17;;;;;;;7.95;4.38;;;;;;;15.06;100.00;100288.59;5019909;28;20399;-71
2023/08/06 01:15:46;;;;;;;6.18;4.30;;;;;;;15.04;100.00;100289.84;5020253;28;20110;-71
2023/08/06 01:18:12;;;;;;;5.93;4.40;;;;;;;15.06;100.00;100296.59;5023815;28;20028;-71
2023/08/06 01:20:37;;;;;;;6.13;4.30;;;;;;;15.03;100.00;100288.97;5018794;28;20231;-71
2023/08/06 01:23:02;;;;;;;4.75;4.05;;;;;;;15.04;100.00;100287.16;5022221;28;20079;-71
2023/08/06 01:25:39;;;;;;;6.03;4.32;;;;;;;15.06;100.00;100287.75;5025443;28;20045;-71
2023/08/06 01:28:17;;;;;;;5.40;4.15;;;;;;;15.05;100.00;100286.94;5025928;28;20026;-71
2023/08/06 01:30:43;;;;;;;9.32;4.63;;;;;;;15.08;100.00;100297.22;5020245;28;22080;-71
2023/08/06 01:33:16;;;;;;;5.55;4.40;;;;;;;15.04;100.00;100292.50;5026678;28;20037;-71
2023/08/06 01:35:42;;;;;;;7.40;4.70;;;;;;;15.06;100.00;100299.28;5027292;28;20075;-71
2023/08/06 01:38:07;;;;;;;6.72;4.90;;;;;;;15.12;100.00;100295.75;5022766;28;20054;-71
2023/08/06 01:40:34;;;;;;;5.32;4.20;;;;;;;15.10;100.00;100295.13;5023862;28;20080;-71
2023/08/06 01:42:59;;;;;;;6.10;4.63;;;;;;;15.11;100.00;100288.75;5020412;28;20441;-71
2023/08/06 01:45:24;;;;;;;13.30;4.63;;;;;;;15.14;100.00;100287.50;5021208;28;20160;-71
2023/08/06 01:47:49;;;;;;;6.13;4.28;;;;;;;15.11;100.00;100290.59;5027106;28;20029;-71
2023/08/06 01:50:15;;;;;;;7.25;4.35;;;;;;;15.10;100.00;100291.66;5024374;28;20542;-71
2023/08/06 01:52:40;;;;;;;8.43;4.38;;;;;;;15.07;100.00;100290.22;5030110;28;20037;-71
2023/08/06 01:55:05;;;;;;;5.90;4.40;;;;;;;15.06;100.00;100288.59;5025326;28;20032;-71
2023/08/06 01:57:31;;;;;;;6.32;4.20;;;;;;;15.04;100.00;100285.31;5027525;28;20421;-71
2023/08/06 01:59:56;;;;;;;7.53;4.00;;;;;;;15.06;100.00;100293.94;5026462;28;20029;-70
2023/08/06 02:02:22;;;;;;;9.15;4.63;;;;;;;15.09;100.00;100287.34;5030864;28;20030;-70
2023/08/06 02:04:47;;;;;;;7.40;4.45;;;;;;;15.08;100.00;100286.50;5030192;28;20017;-71
2023/08/06 02:07:12;;;;;;;6.57;4.35;;;;;;;15.04;100.00;100284.47;5029813;28;20033;-71
2023/08/06 02:09:37;;;;;;;8.52;4.40;;;;;;;15.08;100.00;100286.50;5025421;28;20506;-71
2023/08/06 02:12:03;;;;;;;8.13;4.03;;;;;;;15.05;100.00;100283.44;5026881;28;20027;-71
2023/08/06 02:14:29;;;;;;;6.10;3.90;;;;;;;15.08;100.00;100288.38;5021565;28;20499;-70
2023/08/06 02:16:54;;;;;;;5.22;4.10;;;;;;;15.04;100.00;100285.31;5027902;28;20025;-71
2023/08/06 02:19:19;;;;;;;6.72;4.15;;;;;;;15.09;100.00;100292.69;5018814;28;20025;-71
2023/08/06 02:21:44;;;;;;;9.88;4.28;;;;;;;15.07;100.00;100284.06;5025922;28;20048;-71
2023/08/06 02:24:10;;;;;;;7.28;4.43;;;;;;;15.08;100.00;100285.69;5019311;28;20041;-71
2023/08/06 02:26:35;;;;;;;7.22;4.10;;;;;;;15.08;100.00;100291.84;5027865;28;20033;-71
2023/08/06 02:29:00;;;;;;;4.95;3.97;;;;;;;15.04;100.00;100293.31;5032890;28;20628;-71
2023/08/06 02:31:26;;;;;;;6.35;4.07;;;;;;;15.05;100.00;100286.94;5029272;28;20029;-71
2023/08/06 02:33:51;;;;;;;7.93;4.07;;;;;;;15.09;100.00;100290.81;5026096;28;20021;-71
2023/08/06 02:36:17;;;;;;;5.22;4.30;;;;;;;15.10;100.00;100288.97;5022697;28;20022;-71
2023/08/06 02:38:42;;;;;;;10.40;4.55;;;;;;;15.08;100.00;100283.84;5023100;28;20021;-71
2023/08/06 02:41:07;;;;;;;6.63;4.15;;;;;;;15.12;100.00;100278.88;5024063;28;20399;-71
2023/08/06 02:43:32;;;;;;;6.72;3.95;;;;;;;15.08;100.00;100278.50;5024258;28;20063;-71
2023/08/06 02:45:59;;;;;;;5.78;3.72;;;;;;;15.09;100.00;100272.09;5024823;28;20513;-71
2023/08/06 02:48:24;;;;;;;6.07;3.70;;;;;;;15.09;100.00;100279.31;5024464;28;20026;-71
2023/08/06 02:50:49;;;;;;;8.27;4.47;;;;;;;15.09;100.00;100277.44;5029399;28;20104;-71
2023/08/06 02:53:14;;;;;;;7.93;4.07;;;;;;;15.10;100.00;100276.41;5026617;28;20132;-71
2023/08/06 02:55:47;;;;;;;7.55;4.47;;;;;;;15.06;100.00;100279.75;5027989;28;20047;-71
2023/08/06 02:58:16;;;;;;;8.40;4.43;;;;;;;15.10;100.00;100276.41;5028854;28;20100;-71
2023/08/06 03:00:42;;;;;;;;;;;;;;;15.20;100.00;100275.94;5026870;28;20491;-72
2023/08/06 03:03:08;;;;;;;6.97;4.50;;;;;;;15.14;100.00;100274.13;5019724;28;19956;-71
2023/08/06 03:05:33;;;;;;;5.45;4.72;;;;;;;15.12;100.00;100273.53;5023953;28;20068;-71
2023/08/06 03:07:58;;;;;;;8.80;4.90;;;;;;;15.08;100.00;100275.81;5021179;28;20029;-71
2023/08/06 03:10:24;;;;;;;5.88;4.60;;;;;;;15.09;100.00;100277.44;5019639;28;20026;-71
2023/08/06 03:12:49;;;;;;;7.57;4.80;;;;;;;15.09;100.00;100282.81;5022908;28;20061;-71
2023/08/06 03:15:14;;;;;;;6.82;4.88;;;;;;;15.09;100.00;100277.44;5022452;28;20049;-71
2023/08/06 03:17:40;;;;;;;9.45;5.28;;;;;;;15.09;100.00;100276.63;5022162;28;20021;-71
2023/08/06 03:20:06;;;;;;;7.53;4.70;;;;;;;15.10;100.00;100287.13;5012305;28;20112;-71
2023/08/06 03:22:31;;;;;;;8.13;4.97;;;;;;;15.10;100.00;100279.09;5025704;28;20025;-71
2023/08/06 03:24:56;;;;;;;11.07;5.05;;;;;;;15.11;100.00;100278.06;5023737;28;20510;-71
2023/08/06 03:27:21;;;;;;;8.13;5.13;;;;;;;15.12;100.00;100284.22;5029611;28;20057;-71
2023/08/06 03:29:50;;;;;;;8.82;5.07;;;;;;;15.12;100.00;100287.72;5026419;28;20041;-71
2023/08/06 03:32:15;;;;;;;6.95;5.38;;;;;;;15.06;100.00;100269.84;5023173;28;20032;-71
2023/08/06 03:34:40;;;;;;;7.75;4.97;;;;;;;15.12;100.00;100279.69;5021940;28;20021;-71
2023/08/06 03:37:06;;;;;;;7.07;4.40;;;;;;;15.13;100.00;100276.00;5023030;28;20024;-71
2023/08/06 03:39:31;;;;;;;8.73;4.85;;;;;;;15.14;100.00;100282.97;5020628;28;21799;-71
2023/08/06 03:41:56;;;;;;;11.35;5.13;;;;;;;15.10;100.00;100273.75;5025449;28;20039;-71
2023/08/06 03:44:21;;;;;;;8.38;5.10;;;;;;;15.15;100.00;100283.78;5024100;28;20025;-70
2023/08/06 03:46:47;;;;;;;8.18;5.10;;;;;;;15.14;100.00;100277.63;5022074;28;20029;-71
2023/08/06 03:49:12;;;;;;;7.72;4.75;;;;;;;15.16;100.00;100282.75;5028335;28;20491;-71
2023/08/06 03:51:37;;;;;;;8.85;4.80;;;;;;;15.17;100.00;100279.88;5018003;28;20041;-71
2023/08/06 03:54:02;;;;;;;8.95;4.70;;;;;;;15.15;100.00;100284.63;5023391;28;20029;-71
2023/08/06 03:56:28;;;;;;;7.60;4.90;;;;;;;15.15;100.00;100281.94;5017355;28;20088;-71
2023/08/06 03:58:53;;;;;;;6.75;5.03;;;;;;;15.16;100.00;100280.91;5021959;28;20517;-71
2023/08/06 04:01:18;;;;;;;6.45;5.20;;;;;;;14.97;100.00;100255.06;5022994;28;20033;-71
2023/08/06 04:03:43;;;;;;;9.60;5.03;;;;;;;15.14;100.00;100282.16;5019708;28;20025;-71
2023/08/06 04:06:09;;;;;;;8.88;5.10;;;;;;;15.17;100.00;100287.06;5022046;28;20476;-71
2023/08/06 04:08:34;;;;;;;7.03;5.00;;;;;;;15.14;100.00;100284.84;5025109;28;20036;-71
2023/08/06 04:10:59;;;;;;;5.53;4.53;;;;;;;15.15;100.00;100289.16;5019494;28;20126;-71
2023/08/06 04:13:24;;;;;;;7.25;4.63;;;;;;;15.15;100.00;100292.63;5022159;28;20491;-70
2023/08/06 04:15:50;;;;;;;5.30;4.80;;;;;;;15.16;100.00;100294.28;5021132;28;20021;-71
2023/08/06 04:18:15;;;;;;;7.43;4.45;;;;;;;15.15;100.00;100289.97;5025130;28;20033;-71
2023/08/06 04:20:45;;;;;;;8.75;4.80;;;;;;;15.14;100.00;100296.34;5018418;28;20541;-71
2023/08/06 04:23:10;;;;;;;6.95;5.28;;;;;;;15.15;100.00;100292.63;5027909;28;20025;-71
2023/08/06 04:25:36;;;;;;;13.00;5.00;;;;;;;15.16;100.00;100298.81;5023882;28;20387;-71
2023/08/06 04:28:01;;;;;;;6.82;4.75;;;;;;;15.12;100.00;100298.41;5027370;28;20072;-71
2023/08/06 04:30:26;;;;;;;8.50;5.00;;;;;;;15.19;100.00;100304.53;5017430;28;20041;-71
2023/08/06 04:32:52;;;;;;;6.90;4.95;;;;;;;15.20;100.00;100308.03;5025503;28;20075;-71
2023/08/06 04:35:17;;;;;;;5.38;4.88;;;;;;;15.23;100.00;100309.47;5028362;28;20029;-71
2023/08/06 04:37:42;;;;;;;9.73;5.13;;;;;;;15.23;100.00;100298.75;5026757;28;20022;-71
2023/08/06 04:40:08;;;;;;;7.05;5.10;;;;;;;15.24;100.00;100317.28;5021272;28;20033;-71
2023/08/06 04:42:33;;;;;;;7.75;5.25;;;;;;;15.23;100.00;100315.63;5027067;28;20026;-71
2023/08/06 04:45:01;;;;;;;7.13;5.18;;;;;;;15.23;100.00;100314.81;5016859;28;20178;-71
2023/08/06 04:47:26;;;;;;;7.00;5.38;;;;;;;15.22;100.00;100315.84;5021601;28;20021;-71
2023/08/06 04:49:51;;;;;;;6.72;5.50;;;;;;;15.24;100.00;100316.47;5020818;28;21317;-71
2023/08/06 04:52:17;;;;;;;10.57;5.22;;;;;;;15.25;100.00;100310.06;5022960;28;20383;-71
2023/08/06 04:54:43;;;;;;;10.93;5.43;;;;;;;15.22;100.00;100314.00;5021343;28;20029;-71
2023/08/06 04:57:09;;;;;;;11.05;5.35;;;;;;;15.26;100.00;100314.38;5020239;28;20052;-71
2023/08/06 04:59:34;;;;;;;7.90;5.30;;;;;;;15.27;100.00;100316.03;5017728;28;20484;-71
2023/08/06 05:01:59;;;;;;;8.30;5.53;;;;;;;15.29;100.00;100317.44;5024446;28;20033;-71
2023/08/06 05:04:24;;;;;;;9.38;5.43;;;;;;;15.31;100.00;100315.38;5016248;28;20026;-71
2023/08/06 05:06:50;;;;;;;8.23;5.70;;;;;;;15.28;100.00;100312.31;5026966;28;20025;-71
2023/08/06 05:09:15;;;;;;;6.18;5.38;;;;;;;15.33;100.00;100320.53;5022893;28;20557;-71
2023/08/06 05:11:40;;;;;;;10.32;5.57;;;;;;;15.29;100.00;100314.78;5019615;28;20028;-71
2023/08/06 05:14:05;;;;;;;15.75;5.60;;;;;;;15.32;100.00;100322.38;5021644;28;20477;-70
2023/08/06 05:16:31;;;;;;;9.43;5.55;;;;;;;15.32;100.00;100326.91;5014872;28;20022;-70
2023/08/06 05:18:56;;;;;;;8.25;5.72;;;;;;;15.32;100.00;100334.94;5016868;28;20041;-71
2023/08/06 05:21:21;;;;;;;14.25;5.75;;;;;;;15.24;100.00;100329.84;5022572;28;20064;-71
2023/08/06 05:23:47;;;;;;;10.45;5.65;;;;;;;15.27;100.00;100342.78;5018440;28;20670;-71
2023/08/06 05:26:14;;;;;;;12.02;5.93;;;;;;;15.28;100.00;100344.41;5021183;28;20486;-71
2023/08/06 05:28:41;;;;;;;7.18;5.97;;;;;;;15.25;100.00;100348.34;5030501;28;20033;-70
2023/08/06 05:31:06;;;;;;;10.48;6.22;;;;;;;15.32;100.00;100353.66;5031643;28;20029;-71
2023/08/06 05:33:31;;;;;;;8.07;5.70;;;;;;;15.31;100.00;100355.50;5030109;28;20029;-71
2023/08/06 05:35:57;;;;;;;11.48;6.28;;;;;;;15.34;100.00;100351.63;5023518;28;20033;-71
2023/08/06 05:38:22;;;;;;;8.55;6.15;;;;;;;15.34;100.00;100359.63;5026914;28;20418;-71
2023/08/06 05:40:47;;;;;;;9.57;6.60;;;;;;;15.37;100.00;100356.53;5031014;28;20048;-71
2023/08/06 05:43:13;;;;;;;12.70;6.65;;;;;;;15.42;100.00;100365.56;5020905;28;20026;-71
2023/08/06 05:45:38;;;;;;;10.82;6.43;;;;;;;15.38;100.00;100361.66;5020742;28;20040;-71
2023/08/06 05:48:04;;;;;;;10.00;6.43;;;;;;;15.47;100.00;100375.63;5022056;28;20044;-71
2023/08/06 05:50:29;;;;;;;9.65;6.70;;;;;;;15.48;100.00;100378.06;5020275;28;20041;-71
2023/08/06 05:52:54;;;;;;;9.30;6.88;;;;;;;15.40;100.00;100358.78;5022480;28;20025;-71
2023/08/06 05:55:20;;;;;;;8.90;6.88;;;;;;;15.54;100.00;100381.75;5021387;28;20033;-71
2023/08/06 05:57:45;;;;;;;12.52;6.60;;;;;;;15.56;100.00;100386.88;5023773;28;20075;-71
2023/08/06 06:00:11;;;;;;;10.43;7.10;;;;;;;15.62;100.00;100381.56;5026013;28;20498;-71
2023/08/06 06:02:36;;;;;;;11.90;7.20;;;;;;;15.68;100.00;100391.41;5024513;28;20391;-71
2023/08/06 06:05:02;;;;;;;7.85;7.05;;;;;;;15.74;100.00;100398.56;5023745;28;20090;-71
2023/08/06 06:07:27;;;;;;;11.15;6.85;;;;;;;15.70;100.00;100394.69;5020586;28;20395;-71
2023/08/06 06:09:52;;;;;;;10.30;6.50;;;;;;;15.67;100.00;100392.44;5026039;28;20033;-71
2023/08/06 06:12:18;;;;;;;9.50;6.30;;;;;;;15.70;100.00;100396.53;5029080;28;20021;-71
2023/08/06 06:14:43;;;;;;;8.90;6.57;;;;;;;15.69;100.00;100405.59;5022228;28;20025;-71
2023/08/06 06:17:08;;;;;;;11.57;6.90;;;;;;;15.66;100.00;100406.03;5028051;28;20029;-71
2023/08/06 06:19:33;;;;;;;10.88;7.32;;;;;;;15.60;100.00;100410.34;5019032;28;20038;-71
2023/08/06 06:21:59;;;;;;;10.52;7.32;;;;;;;15.62;100.00;100416.34;5024815;28;20032;-71
2023/08/06 06:24:24;;;;;;;10.45;7.55;;;;;;;15.62;100.00;100419.03;5020254;28;20464;-71
2023/08/06 06:26:50;;;;;;;9.98;8.02;;;;;;;15.65;100.00;100415.91;5022241;28;20481;-71
2023/08/06 06:29:15;;;;;;;9.02;7.78;;;;;;;15.70;100.00;100420.63;5027041;28;20713;-71
2023/08/06 06:31:40;;;;;;;9.63;7.80;;;;;;;15.69;100.00;100417.13;5027050;28;20029;-71
2023/08/06 06:34:05;;;;;;;10.43;8.00;;;;;;;15.69;100.00;100430.50;5030812;28;20029;-71
2023/08/06 06:36:31;;;;;;;10.65;8.35;;;;;;;15.67;100.00;100435.25;5026609;28;20022;-71
2023/08/06 06:38:56;;;;;;;12.82;8.43;;;;;;;15.69;100.00;100438.53;5027014;28;20130;-71
2023/08/06 06:41:21;;;;;;;13.40;8.57;;;;;;;15.74;100.00;100446.75;5014782;28;20017;-71
2023/08/06 06:43:46;;;;;;;12.20;8.50;;;;;;;15.78;100.00;100445.28;5018076;28;20030;-71
2023/08/06 06:46:12;;;;;;;10.73;8.60;;;;;;;15.76;100.00;100444.69;5017468;28;20025;-71
2023/08/06 06:48:37;;;;;;;11.93;8.93;;;;;;;15.82;100.00;100455.56;5023260;28;20049;-70
2023/08/06 06:51:02;;;;;;;12.25;8.48;;;;;;;15.77;100.00;100448.19;5022414;28;20013;-70
2023/08/06 06:53:28;;;;;;;13.77;9.18;;;;;;;15.76;100.00;100450.03;5024037;28;20052;-71
2023/08/06 06:56:02;;;;;;;10.32;8.68;;;;;;;15.75;100.00;100453.75;5028586;28;20072;-71
2023/08/06 06:58:27;;;;;;;12.35;8.73;;;;;;;15.74;100.00;100452.09;5016566;28;20488;-71
2023/08/06 07:00:52;;;;;;;11.55;8.38;;;;;;;15.79;100.00;100460.31;5027215;28;20013;-71
2023/08/06 07:03:20;;;;;;;15.07;9.27;;;;;;;15.82;100.00;100463.59;5029462;28;20021;-71
2023/08/06 07:05:45;;;;;;;15.07;9.00;;;;;;;15.86;100.00;100459.44;5027755;28;20033;-71
2023/08/06 07:08:11;;;;;;;12.65;9.50;;;;;;;15.90;100.00;100466.88;5021544;28;20506;-71
2023/08/06 07:10:36;;;;;;;14.25;9.43;;;;;;;15.88;100.00;100462.72;5027222;28;20029;-71
2023/08/06 07:13:01;;;;;;;14.68;9.23;;;;;;;15.84;100.00;100470.38;5023548;28;20025;-71
2023/08/06 07:15:27;;;;;;;7.68;5.53;;;;;;;15.67;100.00;100455.84;5026555;28;20032;-70
2023/08/06 07:17:52;;;;;;;4.15;2.40;;;;;;;15.49;100.00;100475.25;5022304;28;20036;-70
2023/08/06 07:20:17;;;;;;;1.85;1.40;;;;;;;15.17;100.00;100476.97;5025424;28;20017;-71
2023/08/06 07:22:44;;;;;;;3.25;1.60;;;;;;;14.90;100.00;100486.91;5020821;28;20032;-71
2023/08/06 07:25:09;;;;;;;6.50;1.80;;;;;;;14.64;100.00;100492.25;5022373;28;20096;-71
2023/08/06 07:27:34;;;;;;;4.13;1.75;;;;;;;14.52;100.00;100503.56;5020203;28;20121;-71
2023/08/06 07:29:59;;;;;;;5.22;1.92;;;;;;;14.41;100.00;100512.13;5018916;28;20065;-70
2023/08/06 07:32:26;;;;;;;2.17;1.65;;;;;;;14.27;100.00;100505.97;5020624;28;20479;-70
2023/08/06 07:34:56;;;;;;;2.30;2.10;;;;;;;14.20;100.00;100523.00;5021539;28;20025;-70
2023/08/06 07:37:21;;;;;;;3.08;2.70;;;;;;;14.14;100.00;100523.78;5019746;28;20032;-70
2023/08/06 07:39:47;;;;;;;4.55;3.00;;;;;;;14.09;100.00;100520.91;5017866;28;20029;-70
2023/08/06 07:42:12;;;;;;;3.90;3.55;;;;;;;14.05;100.00;100515.16;5020519;28;20057;-70
2023/08/06 07:44:37;;;;;;;5.10;3.80;;;;;;;14.03;100.00;100525.22;5022476;28;20063;-70
2023/08/06 07:47:03;;;;;;;5.35;4.38;;;;;;;14.00;100.00;100522.13;5018931;28;20419;-70
2023/08/06 07:49:28;;;;;;;4.70;4.25;;;;;;;13.94;100.00;100524.56;5027304;28;20033;-70
2023/08/06 07:51:53;;;;;;;5.22;4.72;;;;;;;13.99;100.00;100531.16;5022583;28;20553;-70
2023/08/06 07:54:18;;;;;;;5.10;4.53;;;;;;;14.00;100.00;100527.47;5017750;28;20040;-70
2023/08/06 07:56:44;;;;;;;4.90;4.40;;;;;;;13.89;100.00;100521.69;5019083;28;20692;-70
2023/08/06 07:59:09;;;;;;;6.03;5.15;;;;;;;13.87;100.00;100515.69;5023394;28;20096;-70
2023/08/06 08:01:34;;;;;;;6.50;5.30;;;;;;;13.91;100.00;100532.16;5017145;28;20029;-70
2023/08/06 08:04:00;;;;;;;6.47;5.25;;;;;;;13.92;100.00;100537.31;5024710;28;20107;-70
2023/08/06 08:06:25;;;;;;;7.63;5.43;;;;;;;13.89;100.00;100532.38;5018998;28;20073;-70
2023/08/06 08:08:51;;;;;;;7.30;5.72;;;;;;;13.94;100.00;100551.28;5025918;28;20057;-70
2023/08/06 08:11:17;;;;;;;7.82;5.35;;;;;;;13.97;100.00;100551.91;5017882;28;20021;-70
2023/08/06 08:13:42;;;;;;;8.52;5.60;;;;;;;13.94;100.00;100545.13;5021481;28;20040;-70
2023/08/06 08:16:08;;;;;;;10.57;5.40;;;;;;;13.97;100.00;100544.72;5019018;28;20120;-70
2023/08/06 08:18:33;;;;;;;9.73;5.03;;;;;;;13.95;100.00;100552.91;5021223;28;20037;-70
2023/08/06 08:20:59;;;;;;;7.25;4.78;;;;;;;13.93;100.00;100556.81;5022131;28;20056;-70
2023/08/06 08:23:24;;;;;;;10.27;5.07;;;;;;;13.94;100.00;100559.28;5019477;28;20034;-70
2023/08/06 08:25:49;;;;;;;9.20;4.40;;;;;;;13.96;100.00;100561.75;5021881;28;20021;-70
2023/08/06 08:28:15;;;;;;;9.77;4.70;;;;;;;13.99;100.00;100563.19;5024560;28;20041;-70
2023/08/06 08:30:41;;;;;;;9.27;5.20;;;;;;;13.98;100.00;100578.41;5017026;28;20496;-70
2023/08/06 08:33:07;;;;;;;9.57;4.38;;;;;;;14.01;100.00;100578.00;5024507;28;20515;-70
2023/08/06 08:35:33;;;;;;;6.03;4.25;;;;;;;14.02;100.00;100581.47;5023532;28;20025;-70
2023/08/06 08:37:58;;;;;;;6.95;4.55;;;;;;;14.02;100.00;100584.16;5021093;28;20037;-70
2023/08/06 08:40:31;;;;;;;6.68;4.20;;;;;;;14.03;100.00;100581.28;5021315;28;20427;-70
2023/08/06 08:42:58;;;;;;;7.70;4.38;;;;;;;14.06;100.00;100580.06;5019479;28;20479;-70
2023/08/06 08:45:28;;;;;;;7.82;4.03;;;;;;;14.08;100.00;100589.50;5022488;28;20028;-70
2023/08/06 08:47:53;;;;;;;5.35;3.47;;;;;;;14.09;100.00;100585.00;5025479;28;20037;-70
2023/08/06 08:50:19;;;;;;;8.07;4.80;;;;;;;14.11;100.00;100585.63;5017163;28;20095;-70
2023/08/06 08:52:45;;;;;;;8.02;3.50;;;;;;;14.11;100.00;100588.28;5017643;28;20120;-70
2023/08/06 08:55:13;;;;;;;5.70;3.45;;;;;;;14.14;100.00;100583.38;5018474;28;20121;-70
2023/08/06 08:57:39;;;;;;;7.30;3.40;;;;;;;14.15;100.00;100590.34;5023956;28;20105;-70
2023/08/06 09:00:05;;;;;;;6.60;3.03;;;;;;;14.16;100.00;100596.53;5020272;28;20034;-70
2023/08/06 09:02:32;;;;;;;5.63;2.67;;;;;;;14.17;100.00;100595.53;5023782;28;20110;-70
2023/08/06 09:05:01;;;;;;;5.15;2.70;;;;;;;14.20;100.00;100592.44;5022182;28;20034;-70
2023/08/06 09:07:27;;;;;;;6.25;2.83;;;;;;;14.20;100.00;100601.28;5021552;28;20029;-70
2023/08/06 09:09:54;;;;;;;4.97;2.60;;;;;;;14.21;100.00;100605.59;5020865;28;20033;-70
2023/08/06 09:12:19;;;;;;;4.35;2.30;;;;;;;14.23;100.00;100614.25;5023888;28;20109;-70
2023/08/06 09:14:44;;;;;;;7.10;2.65;;;;;;;14.20;100.00;100608.47;5023203;28;20703;-70
2023/08/06 09:17:12;;;;;;;7.93;2.97;;;;;;;14.22;100.00;100614.44;5022785;28;20034;-70
2023/08/06 09:19:45;;;;;;;4.90;2.60;;;;;;;14.23;100.00;100618.75;5026744;28;20509;-69
2023/08/06 09:22:13;;;;;;;7.38;2.92;;;;;;;14.21;100.00;100626.16;5024076;28;20371;-70
2023/08/06 09:24:40;;;;;;;7.18;2.55;;;;;;;14.22;100.00;100628.63;5027052;28;20044;-70
2023/08/06 09:27:05;;;;;;;4.03;2.50;;;;;;;14.23;100.00;100626.78;5028884;28;20453;-70
2023/08/06 09:29:31;;;;;;;5.88;2.72;;;;;;;14.25;100.00;100632.72;5021965;28;20543;-70
2023/08/06 09:31:57;;;;;;;7.78;2.70;;;;;;;14.24;100.00;100631.09;5021995;28;20037;-69
2023/08/06 09:34:23;;;;;;;8.85;3.08;;;;;;;14.28;100.00;100637.69;5022761;28;20487;-69
2023/08/06 09:36:55;;;;;;;7.15;3.00;;;;;;;14.31;100.00;100641.78;5021703;28;20057;-70
2023/08/06 09:39:26;;;;;;;7.40;2.83;;;;;;;14.31;100.00;100639.94;5015978;28;20033;-71
2023/08/06 09:41:56;;;;;;;5.30;2.85;;;;;;;14.35;100.00;100656.38;5015498;28;20108;-71
2023/08/06 09:44:23;;;;;;;7.30;2.78;;;;;;;14.35;100.00;100649.19;5018648;28;20029;-70
2023/08/06 09:46:50;;;;;;;8.95;2.78;;;;;;;14.37;100.00;100657.84;5015359;28;20029;-69
2023/08/06 09:49:17;;;;;;;4.43;2.80;;;;;;;14.37;100.00;100649.00;5016304;28;20030;-69
2023/08/06 09:51:44;;;;;;;5.95;2.90;;;;;;;14.34;100.00;100652.91;5015460;28;20030;-70
2023/08/06 09:54:12;;;;;;;7.70;3.03;;;;;;;14.39;100.00;100655.78;5014625;28;20129;-70
2023/08/06 09:56:38;;;;;;;8.48;3.00;;;;;;;14.41;100.00;100658.25;5024459;28;20434;-70
2023/08/06 09:59:06;;;;;;;7.47;3.05;;;;;;;14.40;100.00;100668.13;5024202;28;20113;-70
2023/08/06 10:01:35;;;;;;;7.82;3.22;;;;;;;14.43;100.00;100658.91;5019321;28;20030;-70
2023/08/06 10:04:03;;;;;;;9.20;3.83;;;;;;;14.45;100.00;100673.72;5020309;28;20128;-70
2023/08/06 10:06:29;;;;;;;9.40;3.63;;;;;;;14.44;100.00;100672.06;5018403;28;20122;-70
2023/08/06 10:08:54;;;;;;;7.43;4.10;;;;;;;14.44;100.00;100668.56;5020212;28;20377;-70
2023/08/06 10:11:23;;;;;;;8.85;4.28;;;;;;;14.45;100.00;100680.91;5025430;28;20030;-70
2023/08/06 10:13:53;;;;;;;8.25;3.63;;;;;;;14.46;100.00;100677.25;5024678;28;20075;-70
2023/08/06 10:16:19;;;;;;;9.60;3.75;;;;;;;14.47;100.00;100678.88;5027822;28;20036;-70
2023/08/06 10:18:47;;;;;;;8.85;3.03;;;;;;;14.47;100.00;100678.88;5027998;28;20045;-70
2023/08/06 10:21:13;;;;;;;6.88;3.40;;;;;;;14.47;100.00;100684.25;5024617;28;20510;-70
2023/08/06 10:23:40;;;;;;;10.18;3.90;;;;;;;14.50;100.00;100681.16;5022492;28;20088;-70
2023/08/06 10:26:05;;;;;;;5.03;3.20;;;;;;;14.54;100.00;100685.91;5023341;28;20083;-70
2023/08/06 10:28:38;;;;;;;5.70;3.10;;;;;;;14.56;100.00;100688.38;5025087;28;20026;-70
2023/08/06 10:31:04;;;;;;;6.97;3.42;;;;;;;14.59;100.00;100676.44;5022319;28;20034;-70
2023/08/06 10:33:43;;;;;;;8.35;3.80;;;;;;;14.63;100.00;100693.72;5021631;28;20112;-70
2023/08/06 10:36:11;;;;;;;7.05;3.53;;;;;;;14.68;100.00;100691.28;5024796;28;20483;-70
2023/08/06 10:38:47;;;;;;;8.47;3.83;;;;;;;14.69;100.00;100688.41;5022658;28;20125;-70
2023/08/06 10:41:29;;;;;;;9.25;3.88;;;;;;;14.73;100.00;100692.31;5023899;28;20426;-70
2023/08/06 10:44:08;;;;;;;8.07;3.50;;;;;;;14.79;100.00;100696.88;5023387;28;20029;-70
2023/08/06 10:46:33;;;;;;;8.88;3.80;;;;;;;14.81;100.00;100692.16;5019131;28;20485;-70
2023/08/06 10:48:59;;;;;;;9.45;3.55;;;;;;;14.87;100.00;100693.19;5028379;28;20037;-70
2023/08/06 10:51:25;;;;;;;5.63;3.30;;;;;;;14.86;100.00;100686.19;5027576;28;20033;-70
2023/08/06 10:53:50;;;;;;;5.60;3.15;;;;;;;14.93;100.00;100696.91;5026733;28;20032;-70
2023/08/06 10:56:18;;;;;;;8.32;3.30;;;;;;;14.91;100.00;100699.78;5027040;28;20022;-70
2023/08/06 10:58:47;;;;;;;5.57;2.85;;;;;;;14.85;100.00;100697.91;5021895;28;20033;-70
2023/08/06 11:01:12;;;;;;;4.63;3.08;;;;;;;14.85;100.00;100698.75;5025803;28;20025;-69
2023/08/06 11:03:39;;;;;;;6.78;2.90;;;;;;;14.85;100.00;100713.97;5024910;28;20098;-70
2023/08/06 11:06:06;;;;;;;8.02;2.67;;;;;;;14.80;100.00;100708.41;5017260;28;20440;-70
2023/08/06 11:08:37;;;;;;;7.30;2.95;;;;;;;14.80;100.00;100709.22;5022590;28;20033;-70
2023/08/06 11:11:13;;;;;;;5.95;3.00;;;;;;;14.80;100.00;100717.25;5017446;28;20033;-69
2023/08/06 11:13:39;;;;;;;4.78;2.72;;;;;;;14.75;100.00;100713.53;5020918;28;20029;-70